createdAt,value
2023-01-18T00:00:26.885Z,91.87
2023-01-18T00:01:26.860Z,91.87
2023-01-18T00:02:26.830Z,91.87
2023-01-18T00:03:26.800Z,91.87
2023-01-18T00:04:26.786Z,91.87
2023-01-18T00:05:26.780Z,91.87
2023-01-18T00:06:26.760Z,91.91
2023-01-18T00:07:26.766Z,91.81
2023-01-18T00:08:26.776Z,91.81
2023-01-18T00:09:26.741Z,91.81
2023-01-18T00:10:26.759Z,91.81
2023-01-18T00:11:26.719Z,91.71
2023-01-18T00:12:26.683Z,91.71
2023-01-18T00:13:26.671Z,91.71
2023-01-18T00:14:26.686Z,91.74
2023-01-18T00:15:26.664Z,91.71
2023-01-18T00:16:26.729Z,91.74
2023-01-18T00:17:26.635Z,91.74
2023-01-18T00:18:26.628Z,91.74
2023-01-18T00:19:26.616Z,91.74
2023-01-18T00:20:26.631Z,91.74
2023-01-18T00:21:26.601Z,91.74
2023-01-18T00:22:26.584Z,91.74
2023-01-18T00:23:26.574Z,91.74
2023-01-18T00:24:26.570Z,91.74
2023-01-18T00:25:26.555Z,91.74
2023-01-18T00:26:26.537Z,91.74
2023-01-18T00:27:26.531Z,91.71
2023-01-18T00:28:26.512Z,91.71
2023-01-18T00:29:26.504Z,91.71
2023-01-18T00:30:26.520Z,91.81
2023-01-18T00:31:26.525Z,91.81
2023-01-18T00:32:26.475Z,91.81
2023-01-18T00:33:26.458Z,91.81
2023-01-18T00:34:26.454Z,91.81
2023-01-18T00:35:26.485Z,91.81
2023-01-18T00:36:26.427Z,91.81
2023-01-18T00:37:26.423Z,91.91
2023-01-18T00:38:26.410Z,91.91
2023-01-18T00:39:26.417Z,91.91
2023-01-18T00:40:26.377Z,91.91
2023-01-18T00:41:26.384Z,91.91
2023-01-18T00:42:26.361Z,91.91
2023-01-18T00:43:26.353Z,91.91
2023-01-18T00:44:26.335Z,91.91
2023-01-18T00:45:26.339Z,91.91
2023-01-18T00:46:26.355Z,91.91
2023-01-18T00:47:26.327Z,91.91
2023-01-18T00:48:26.301Z,91.87
2023-01-18T00:49:26.285Z,91.81
2023-01-18T00:50:26.285Z,91.91
2023-01-18T00:51:26.270Z,91.91
2023-01-18T00:52:26.252Z,91.81
2023-01-18T00:53:26.249Z,91.81
2023-01-18T00:54:26.227Z,91.81
2023-01-18T00:55:26.219Z,91.81
2023-01-18T00:56:26.265Z,91.81
2023-01-18T00:57:26.199Z,91.81
2023-01-18T00:58:26.338Z,91.71
2023-01-18T00:59:26.172Z,91.71
2023-01-18T01:00:26.172Z,91.71
2023-01-18T01:01:26.276Z,91.74
2023-01-18T01:02:26.203Z,91.74
2023-01-18T01:03:26.165Z,91.64
2023-01-18T01:04:26.114Z,91.64
2023-01-18T01:05:26.112Z,91.64
2023-01-18T01:06:26.099Z,91.64
2023-01-18T01:07:26.077Z,91.64
2023-01-18T01:08:26.084Z,91.64
2023-01-18T01:09:26.091Z,91.64
2023-01-18T01:10:26.049Z,91.64
2023-01-18T01:11:26.040Z,91.64
2023-01-18T01:12:26.045Z,91.64
2023-01-18T01:13:26.077Z,91.64
2023-01-18T01:14:26.006Z,91.64
2023-01-18T01:15:25.997Z,91.64
2023-01-18T01:16:26.059Z,91.64
2023-01-18T01:17:25.966Z,91.64
2023-01-18T01:18:25.953Z,91.64
2023-01-18T01:19:25.973Z,91.71
2023-01-18T01:20:25.950Z,91.71
2023-01-18T01:21:25.934Z,91.71
2023-01-18T01:22:25.919Z,91.71
2023-01-18T01:23:25.911Z,91.71
2023-01-18T01:24:25.891Z,91.71
2023-01-18T01:25:25.887Z,91.71
2023-01-18T01:26:25.903Z,91.71
2023-01-18T01:27:25.878Z,91.71
2023-01-18T01:28:25.860Z,91.71
2023-01-18T01:29:25.843Z,91.71
2023-01-18T01:30:25.874Z,91.71
2023-01-18T01:31:25.813Z,91.71
2023-01-18T01:32:25.806Z,91.71
2023-01-18T01:33:25.816Z,91.71
2023-01-18T01:34:25.779Z,91.71
2023-01-18T01:35:25.785Z,91.71
2023-01-18T01:36:25.824Z,91.71
2023-01-18T01:37:25.759Z,91.71
2023-01-18T01:38:25.769Z,91.71
2023-01-18T01:39:25.736Z,91.71
2023-01-18T01:40:25.727Z,91.71
2023-01-18T01:41:25.700Z,91.64
2023-01-18T01:42:25.718Z,91.64
2023-01-18T01:43:25.675Z,91.64
2023-01-18T01:44:25.672Z,91.74
2023-01-18T01:45:25.671Z,91.64
2023-01-18T01:46:25.649Z,91.64
2023-01-18T01:47:25.652Z,91.64
2023-01-18T01:48:25.648Z,91.64
2023-01-18T01:49:25.629Z,91.64
2023-01-18T01:50:25.612Z,91.64
2023-01-18T01:51:25.606Z,91.64
2023-01-18T01:52:25.584Z,91.64
2023-01-18T01:53:25.586Z,91.64
2023-01-18T01:54:25.590Z,91.64
2023-01-18T01:55:25.552Z,91.64
2023-01-18T01:56:25.545Z,91.64
2023-01-18T01:57:25.539Z,91.64
2023-01-18T01:58:25.522Z,91.64
2023-01-18T01:59:25.535Z,91.64
2023-01-18T02:00:25.493Z,91.53
2023-01-18T02:01:25.589Z,91.64
2023-01-18T02:02:25.537Z,91.64
2023-01-18T02:03:25.460Z,91.64
2023-01-18T02:04:25.464Z,91.64
2023-01-18T02:05:25.479Z,91.64
2023-01-18T02:06:25.490Z,91.64
2023-01-18T02:07:25.436Z,91.64
2023-01-18T02:08:25.427Z,91.64
2023-01-18T02:09:25.399Z,91.64
2023-01-18T02:10:25.399Z,91.64
2023-01-18T02:11:25.373Z,91.64
2023-01-18T02:12:25.374Z,91.64
2023-01-18T02:13:25.383Z,91.64
2023-01-18T02:14:25.346Z,91.64
2023-01-18T02:15:25.400Z,91.74
2023-01-18T02:16:25.327Z,91.74
2023-01-18T02:17:25.328Z,91.74
2023-01-18T02:18:25.297Z,91.74
2023-01-18T02:19:25.285Z,91.74
2023-01-18T02:20:25.266Z,91.74
2023-01-18T02:21:25.271Z,91.71
2023-01-18T02:22:25.252Z,91.71
2023-01-18T02:23:25.265Z,91.71
2023-01-18T02:24:25.226Z,91.71
2023-01-18T02:25:25.239Z,91.71
2023-01-18T02:26:25.225Z,91.71
2023-01-18T02:27:25.201Z,91.71
2023-01-18T02:28:25.182Z,91.71
2023-01-18T02:29:25.176Z,91.71
2023-01-18T02:30:25.175Z,91.60
2023-01-18T02:31:25.161Z,91.60
2023-01-18T02:32:25.175Z,91.64
2023-01-18T02:33:25.132Z,91.53
2023-01-18T02:34:25.179Z,91.43
2023-01-18T02:35:25.124Z,91.43
2023-01-18T02:36:25.098Z,91.33
2023-01-18T02:37:25.091Z,91.22
2023-01-18T02:38:25.089Z,91.11
2023-01-18T02:39:25.082Z,91.11
2023-01-18T02:40:25.065Z,91.11
2023-01-18T02:41:25.059Z,91.11
2023-01-18T02:42:25.050Z,91.01
2023-01-18T02:43:25.019Z,90.91
2023-01-18T02:44:25.019Z,90.80
2023-01-18T02:45:25.014Z,90.84
2023-01-18T02:46:25.018Z,90.84
2023-01-18T02:47:24.978Z,90.73
2023-01-18T02:48:24.974Z,90.63
2023-01-18T02:49:24.948Z,90.63
2023-01-18T02:50:24.969Z,90.63
2023-01-18T02:51:24.935Z,90.53
2023-01-18T02:52:24.921Z,90.53
2023-01-18T02:53:24.923Z,90.53
2023-01-18T02:54:24.923Z,90.42
2023-01-18T02:55:24.880Z,90.42
2023-01-18T02:56:24.881Z,90.42
2023-01-18T02:57:24.874Z,90.31
2023-01-18T02:58:24.856Z,90.31
2023-01-18T02:59:24.847Z,90.31
2023-01-18T03:00:24.832Z,90.31
2023-01-18T03:01:24.950Z,90.31
2023-01-18T03:02:24.911Z,90.21
2023-01-18T03:03:24.802Z,90.21
2023-01-18T03:04:24.791Z,90.36
2023-01-18T03:05:24.792Z,90.25
2023-01-18T03:06:24.787Z,90.25
2023-01-18T03:07:24.752Z,90.36
2023-01-18T03:08:24.738Z,90.25
2023-01-18T03:09:24.743Z,90.25
2023-01-18T03:10:24.727Z,90.25
2023-01-18T03:11:24.728Z,90.25
2023-01-18T03:12:24.702Z,90.25
2023-01-18T03:13:24.704Z,90.14
2023-01-18T03:14:24.681Z,90.25
2023-01-18T03:15:24.667Z,90.14
2023-01-18T03:16:24.655Z,90.25
2023-01-18T03:17:24.662Z,90.14
2023-01-18T03:18:24.644Z,90.25
2023-01-18T03:19:24.694Z,90.14
2023-01-18T03:20:25.566Z,90.14
2023-01-18T03:21:24.605Z,90.14
2023-01-18T03:22:24.593Z,90.14
2023-01-18T03:23:24.577Z,90.14
2023-01-18T03:24:24.585Z,90.04
2023-01-18T03:25:24.569Z,90.04
2023-01-18T03:26:24.575Z,90.04
2023-01-18T03:27:24.535Z,89.94
2023-01-18T03:28:24.529Z,89.94
2023-01-18T03:29:24.507Z,89.94
2023-01-18T03:30:24.520Z,89.94
2023-01-18T03:31:24.572Z,89.94
2023-01-18T03:32:24.485Z,89.94
2023-01-18T03:33:24.471Z,89.94
2023-01-18T03:34:24.465Z,89.94
2023-01-18T03:35:24.445Z,89.94
2023-01-18T03:36:24.452Z,89.94
2023-01-18T03:37:24.457Z,89.94
2023-01-18T03:38:24.418Z,90.04
2023-01-18T03:39:24.425Z,90.04
2023-01-18T03:40:24.387Z,90.04
2023-01-18T03:41:24.384Z,90.04
2023-01-18T03:42:24.388Z,90.04
2023-01-18T03:43:24.371Z,90.04
2023-01-18T03:44:24.357Z,90.14
2023-01-18T03:45:24.350Z,90.14
2023-01-18T03:46:24.370Z,90.14
2023-01-18T03:47:24.345Z,90.14
2023-01-18T03:48:24.312Z,90.14
2023-01-18T03:49:24.292Z,90.14
2023-01-18T03:50:24.301Z,90.14
2023-01-18T03:51:24.284Z,90.14
2023-01-18T03:52:24.303Z,90.14
2023-01-18T03:53:24.258Z,90.04
2023-01-18T03:54:24.252Z,90.04
2023-01-18T03:55:24.252Z,90.04
2023-01-18T03:56:24.230Z,90.04
2023-01-18T03:57:24.234Z,90.04
2023-01-18T03:58:24.218Z,90.04
2023-01-18T03:59:24.180Z,90.04
2023-01-18T04:00:24.178Z,90.04
2023-01-18T04:01:24.374Z,90.04
2023-01-18T04:02:24.226Z,90.04
2023-01-18T04:03:24.139Z,90.00
2023-01-18T04:04:24.126Z,90.00
2023-01-18T04:05:24.126Z,90.00
2023-01-18T04:06:24.113Z,90.11
2023-01-18T04:07:24.113Z,90.11
2023-01-18T04:08:24.087Z,90.21
2023-01-18T04:09:24.083Z,90.21
2023-01-18T04:10:24.077Z,90.21
2023-01-18T04:11:24.069Z,90.21
2023-01-18T04:12:24.048Z,90.21
2023-01-18T04:13:24.028Z,90.21
2023-01-18T04:14:24.036Z,90.21
2023-01-18T04:15:24.002Z,90.21
2023-01-18T04:16:23.994Z,90.21
2023-01-18T04:17:23.989Z,90.21
2023-01-18T04:18:23.973Z,90.21
2023-01-18T04:19:23.972Z,90.21
2023-01-18T04:20:23.964Z,90.21
2023-01-18T04:21:23.935Z,90.21
2023-01-18T04:22:23.955Z,90.14
2023-01-18T04:23:23.921Z,90.04
2023-01-18T04:24:23.925Z,90.04
2023-01-18T04:25:23.910Z,89.94
2023-01-18T04:26:23.917Z,89.94
2023-01-18T04:27:24.403Z,89.94
2023-01-18T04:28:24.053Z,89.94
2023-01-18T04:29:23.853Z,89.94
2023-01-18T04:30:23.863Z,89.87
2023-01-18T04:31:23.888Z,89.87
2023-01-18T04:32:23.832Z,89.87
2023-01-18T04:33:23.833Z,89.87
2023-01-18T04:34:23.799Z,89.98
2023-01-18T04:35:23.793Z,89.87
2023-01-18T04:36:23.791Z,89.98
2023-01-18T04:37:23.756Z,89.98
2023-01-18T04:38:23.761Z,89.98
2023-01-18T04:39:23.759Z,89.98
2023-01-18T04:40:23.741Z,89.87
2023-01-18T04:41:23.745Z,89.98
2023-01-18T04:42:23.721Z,89.98
2023-01-18T04:43:23.714Z,89.98
2023-01-18T04:44:23.701Z,89.98
2023-01-18T04:45:23.684Z,89.98
2023-01-18T04:46:23.718Z,89.98
2023-01-18T04:47:23.649Z,89.94
2023-01-18T04:48:23.877Z,89.94
2023-01-18T04:49:23.649Z,89.94
2023-01-18T04:50:23.620Z,89.98
2023-01-18T04:51:23.628Z,89.87
2023-01-18T04:52:23.604Z,89.87
2023-01-18T04:53:23.593Z,89.98
2023-01-18T04:54:23.574Z,89.98
2023-01-18T04:55:23.571Z,89.87
2023-01-18T04:56:23.548Z,89.87
2023-01-18T04:57:23.546Z,89.98
2023-01-18T04:58:23.544Z,89.98
2023-01-18T04:59:23.522Z,89.98
2023-01-18T05:00:23.509Z,89.87
2023-01-18T05:01:23.697Z,89.87
2023-01-18T05:02:23.516Z,89.98
2023-01-18T05:03:23.477Z,89.98
2023-01-18T05:04:23.500Z,89.98
2023-01-18T05:05:24.031Z,89.98
2023-01-18T05:06:23.443Z,89.98
2023-01-18T05:07:23.462Z,89.98
2023-01-18T05:08:23.459Z,89.98
2023-01-18T05:09:23.425Z,89.87
2023-01-18T05:10:23.398Z,89.87
2023-01-18T05:11:23.417Z,89.87
2023-01-18T05:12:23.376Z,89.87
2023-01-18T05:13:23.365Z,89.87
2023-01-18T05:14:23.360Z,89.76
2023-01-18T05:15:23.417Z,89.76
2023-01-18T05:16:23.736Z,89.76
2023-01-18T05:17:23.355Z,89.76
2023-01-18T05:18:23.343Z,89.76
2023-01-18T05:19:23.306Z,89.66
2023-01-18T05:20:23.288Z,89.62
2023-01-18T05:21:23.287Z,89.62
2023-01-18T05:22:23.308Z,89.62
2023-01-18T05:23:23.454Z,89.62
2023-01-18T05:24:24.812Z,89.62
2023-01-18T05:25:23.785Z,89.62
2023-01-18T05:26:23.229Z,89.62
2023-01-18T05:27:23.243Z,89.62
2023-01-18T05:28:23.206Z,89.51
2023-01-18T05:29:23.247Z,89.56
2023-01-18T05:30:23.208Z,89.56
2023-01-18T05:31:23.453Z,89.56
2023-01-18T05:32:23.271Z,89.56
2023-01-18T05:33:23.157Z,89.56
2023-01-18T05:34:23.167Z,89.66
2023-01-18T05:35:23.162Z,89.66
2023-01-18T05:36:23.126Z,89.56
2023-01-18T05:37:23.114Z,89.56
2023-01-18T05:38:23.111Z,89.66
2023-01-18T05:39:23.097Z,89.66
2023-01-18T05:40:23.075Z,89.66
2023-01-18T05:41:23.061Z,89.66
2023-01-18T05:42:24.414Z,89.66
2023-01-18T05:43:23.043Z,89.56
2023-01-18T05:44:23.036Z,89.56
2023-01-18T05:45:23.195Z,89.56
2023-01-18T05:46:23.188Z,89.56
2023-01-18T05:47:23.054Z,89.56
2023-01-18T05:48:22.999Z,89.56
2023-01-18T05:49:22.982Z,89.56
2023-01-18T05:50:22.980Z,89.56
2023-01-18T05:51:22.985Z,89.56
2023-01-18T05:52:22.958Z,89.56
2023-01-18T05:53:22.941Z,89.56
2023-01-18T05:54:22.925Z,89.56
2023-01-18T05:55:22.915Z,89.56
2023-01-18T05:56:22.913Z,89.56
2023-01-18T05:57:22.918Z,89.51
2023-01-18T05:58:22.871Z,89.56
2023-01-18T05:59:22.864Z,89.62
2023-01-18T06:00:22.857Z,89.62
2023-01-18T06:01:22.984Z,89.62
2023-01-18T06:02:22.834Z,89.62
2023-01-18T06:03:22.844Z,89.51
2023-01-18T06:04:22.831Z,89.56
2023-01-18T06:05:22.787Z,89.56
2023-01-18T06:06:22.790Z,89.45
2023-01-18T06:07:22.783Z,89.56
2023-01-18T06:08:22.778Z,89.45
2023-01-18T06:09:22.764Z,89.45
2023-01-18T06:10:22.749Z,89.45
2023-01-18T06:11:22.754Z,89.45
2023-01-18T06:12:22.716Z,89.45
2023-01-18T06:13:22.700Z,89.45
2023-01-18T06:14:22.731Z,89.34
2023-01-18T06:15:22.693Z,89.34
2023-01-18T06:16:22.766Z,89.34
2023-01-18T06:17:22.675Z,89.24
2023-01-18T06:18:22.670Z,89.24
2023-01-18T06:19:22.663Z,89.24
2023-01-18T06:20:22.632Z,89.24
2023-01-18T06:21:22.649Z,89.24
2023-01-18T06:22:22.630Z,89.24
2023-01-18T06:23:22.604Z,89.14
2023-01-18T06:24:22.617Z,89.03
2023-01-18T06:25:22.581Z,89.07
2023-01-18T06:26:22.573Z,88.96
2023-01-18T06:27:22.555Z,88.96
2023-01-18T06:28:22.577Z,88.86
2023-01-18T06:29:22.530Z,88.86
2023-01-18T06:30:22.521Z,88.96
2023-01-18T06:31:22.526Z,88.96
2023-01-18T06:32:22.498Z,88.96
2023-01-18T06:33:22.497Z,89.07
2023-01-18T06:34:22.508Z,89.07
2023-01-18T06:35:22.471Z,89.07
2023-01-18T06:36:22.461Z,89.17
2023-01-18T06:37:22.457Z,89.17
2023-01-18T06:38:22.451Z,89.28
2023-01-18T06:39:22.417Z,89.24
2023-01-18T06:40:22.432Z,89.24
2023-01-18T06:41:22.395Z,89.24
2023-01-18T06:42:22.402Z,89.24
2023-01-18T06:43:22.383Z,89.24
2023-01-18T06:44:22.380Z,89.24
2023-01-18T06:45:22.413Z,89.34
2023-01-18T06:46:22.355Z,89.34
2023-01-18T06:47:22.330Z,89.34
2023-01-18T06:48:22.346Z,89.24
2023-01-18T06:49:22.335Z,89.34
2023-01-18T06:50:22.312Z,89.24
2023-01-18T06:51:22.308Z,89.24
2023-01-18T06:52:22.283Z,89.24
2023-01-18T06:53:22.269Z,89.24
2023-01-18T06:54:22.253Z,89.24
2023-01-18T06:55:22.248Z,89.24
2023-01-18T06:56:22.239Z,89.24
2023-01-18T06:57:22.239Z,89.28
2023-01-18T06:58:22.214Z,89.24
2023-01-18T06:59:22.198Z,89.24
2023-01-18T07:00:22.188Z,89.28
2023-01-18T07:01:22.330Z,89.28
2023-01-18T07:02:22.171Z,89.28
2023-01-18T07:03:22.168Z,89.28
2023-01-18T07:04:22.225Z,89.28
2023-01-18T07:05:22.139Z,89.28
2023-01-18T07:06:22.151Z,89.28
2023-01-18T07:07:22.116Z,89.28
2023-01-18T07:08:22.105Z,89.17
2023-01-18T07:09:22.127Z,89.17
2023-01-18T07:10:22.086Z,89.17
2023-01-18T07:11:22.095Z,89.17
2023-01-18T07:12:22.069Z,89.17
2023-01-18T07:13:22.069Z,89.17
2023-01-18T07:14:22.053Z,89.17
2023-01-18T07:15:23.010Z,89.17
2023-01-18T07:16:22.091Z,89.17
2023-01-18T07:17:22.008Z,89.17
2023-01-18T07:18:21.991Z,89.17
2023-01-18T07:19:21.986Z,89.17
2023-01-18T07:20:21.984Z,89.17
2023-01-18T07:21:21.967Z,89.17
2023-01-18T07:22:21.964Z,89.17
2023-01-18T07:23:21.946Z,89.17
2023-01-18T07:24:21.942Z,89.17
2023-01-18T07:25:22.006Z,89.17
2023-01-18T07:26:22.075Z,89.17
2023-01-18T07:27:21.907Z,89.17
2023-01-18T07:28:22.187Z,89.17
2023-01-18T07:29:21.894Z,89.17
2023-01-18T07:30:21.901Z,89.17
2023-01-18T07:31:21.852Z,89.17
2023-01-18T07:32:21.831Z,89.17
2023-01-18T07:33:21.833Z,89.17
2023-01-18T07:34:21.817Z,89.17
2023-01-18T07:35:21.821Z,89.17
2023-01-18T07:36:21.798Z,89.17
2023-01-18T07:37:21.809Z,89.17
2023-01-18T07:38:21.776Z,89.17
2023-01-18T07:39:21.774Z,89.17
2023-01-18T07:40:21.806Z,89.17
2023-01-18T07:41:21.750Z,89.17
2023-01-18T07:42:21.747Z,89.17
2023-01-18T07:43:21.729Z,89.07
2023-01-18T07:44:21.737Z,89.07
2023-01-18T07:45:21.722Z,89.17
2023-01-18T07:46:21.708Z,89.17
2023-01-18T07:47:21.700Z,89.17
2023-01-18T07:48:21.689Z,89.17
2023-01-18T07:49:21.659Z,89.07
2023-01-18T07:50:21.656Z,89.07
2023-01-18T07:51:21.652Z,89.07
2023-01-18T07:52:21.629Z,89.07
2023-01-18T07:53:21.631Z,89.07
2023-01-18T07:54:21.604Z,88.96
2023-01-18T07:55:21.658Z,89.07
2023-01-18T07:56:21.590Z,89.07
2023-01-18T07:57:21.565Z,89.03
2023-01-18T07:58:21.570Z,89.03
2023-01-18T07:59:21.561Z,88.92
2023-01-18T08:00:21.539Z,88.96
2023-01-18T08:01:21.698Z,88.96
2023-01-18T08:02:21.547Z,88.86
2023-01-18T08:03:21.498Z,88.86
2023-01-18T08:04:21.505Z,88.82
2023-01-18T08:05:21.490Z,88.82
2023-01-18T08:06:21.466Z,88.86
2023-01-18T08:07:21.464Z,88.86
2023-01-18T08:08:21.452Z,88.86
2023-01-18T08:09:21.443Z,88.96
2023-01-18T08:10:21.426Z,88.92
2023-01-18T08:11:21.425Z,88.92
2023-01-18T08:12:21.438Z,88.92
2023-01-18T08:13:21.397Z,89.03
2023-01-18T08:14:21.379Z,89.03
2023-01-18T08:15:21.386Z,89.03
2023-01-18T08:16:21.363Z,88.92
2023-01-18T08:17:21.371Z,88.92
2023-01-18T08:18:21.329Z,88.92
2023-01-18T08:19:21.319Z,88.92
2023-01-18T08:20:21.310Z,88.92
2023-01-18T08:21:21.300Z,88.92
2023-01-18T08:22:21.304Z,88.92
2023-01-18T08:23:21.294Z,88.92
2023-01-18T08:24:21.263Z,88.82
2023-01-18T08:25:21.252Z,88.92
2023-01-18T08:26:21.290Z,88.78
2023-01-18T08:27:21.234Z,88.78
2023-01-18T08:28:21.249Z,88.78
2023-01-18T08:29:21.210Z,88.78
2023-01-18T08:30:21.200Z,88.78
2023-01-18T08:31:21.303Z,88.78
2023-01-18T08:32:21.172Z,88.78
2023-01-18T08:33:21.180Z,88.78
2023-01-18T08:34:21.179Z,88.78
2023-01-18T08:35:23.644Z,88.78
2023-01-18T08:36:21.134Z,88.78
2023-01-18T08:37:21.296Z,88.78
2023-01-18T08:38:21.109Z,88.67
2023-01-18T08:39:21.118Z,88.67
2023-01-18T08:40:21.121Z,88.67
2023-01-18T08:41:21.113Z,88.78
2023-01-18T08:42:21.068Z,88.78
2023-01-18T08:43:21.058Z,88.78
2023-01-18T08:44:21.044Z,88.78
2023-01-18T08:45:21.045Z,88.78
2023-01-18T08:46:21.147Z,88.78
2023-01-18T08:47:21.051Z,88.78
2023-01-18T08:48:21.003Z,88.67
2023-01-18T08:49:21.006Z,88.74
2023-01-18T08:50:21.060Z,88.74
2023-01-18T08:51:20.986Z,88.74
2023-01-18T08:52:20.972Z,88.63
2023-01-18T08:53:20.952Z,88.74
2023-01-18T08:54:20.935Z,88.74
2023-01-18T08:55:20.940Z,88.74
2023-01-18T08:56:20.912Z,88.74
2023-01-18T08:57:20.907Z,88.74
2023-01-18T08:58:20.919Z,88.74
2023-01-18T08:59:20.949Z,88.84
2023-01-18T09:00:20.907Z,88.84
2023-01-18T09:01:20.971Z,88.80
2023-01-18T09:02:20.864Z,88.84
2023-01-18T09:03:20.836Z,88.84
2023-01-18T09:04:20.829Z,88.84
2023-01-18T09:05:20.814Z,88.80
2023-01-18T09:06:20.812Z,88.80
2023-01-18T09:07:20.800Z,88.80
2023-01-18T09:08:20.810Z,88.80
2023-01-18T09:09:20.769Z,88.80
2023-01-18T09:10:20.763Z,88.80
2023-01-18T09:11:20.812Z,88.91
2023-01-18T09:12:20.742Z,88.80
2023-01-18T09:13:20.750Z,88.80
2023-01-18T09:14:20.725Z,88.80
2023-01-18T09:15:20.751Z,88.80
2023-01-18T09:16:20.750Z,88.80
2023-01-18T09:17:20.699Z,88.80
2023-01-18T09:18:20.671Z,88.87
2023-01-18T09:19:20.694Z,88.87
2023-01-18T09:20:20.671Z,88.87
2023-01-18T09:21:20.642Z,88.87
2023-01-18T09:22:20.638Z,88.87
2023-01-18T09:23:20.629Z,88.82
2023-01-18T09:24:20.611Z,88.82
2023-01-18T09:25:20.620Z,88.72
2023-01-18T09:26:20.818Z,88.72
2023-01-18T09:27:20.601Z,88.72
2023-01-18T09:28:20.559Z,88.68
2023-01-18T09:29:20.566Z,88.57
2023-01-18T09:30:20.544Z,88.57
2023-01-18T09:31:20.591Z,88.57
2023-01-18T09:32:20.536Z,88.47
2023-01-18T09:33:20.509Z,88.47
2023-01-18T09:34:20.528Z,88.47
2023-01-18T09:35:20.483Z,88.37
2023-01-18T09:36:20.476Z,88.37
2023-01-18T09:37:20.468Z,88.26
2023-01-18T09:38:20.501Z,88.22
2023-01-18T09:39:20.450Z,88.22
2023-01-18T09:40:20.508Z,88.12
2023-01-18T09:41:20.440Z,88.12
2023-01-18T09:42:20.418Z,88.01
2023-01-18T09:43:20.405Z,87.97
2023-01-18T09:44:20.396Z,87.97
2023-01-18T09:45:20.385Z,87.97
2023-01-18T09:46:20.482Z,87.87
2023-01-18T09:47:20.389Z,87.76
2023-01-18T09:48:20.359Z,87.76
2023-01-18T09:49:20.338Z,87.66
2023-01-18T09:50:20.332Z,87.62
2023-01-18T09:51:20.319Z,87.62
2023-01-18T09:52:20.321Z,87.51
2023-01-18T09:53:20.312Z,87.51
2023-01-18T09:54:20.292Z,87.41
2023-01-18T09:55:20.266Z,87.30
2023-01-18T09:56:20.257Z,87.26
2023-01-18T09:57:20.246Z,87.26
2023-01-18T09:58:20.240Z,87.16
2023-01-18T09:59:20.248Z,87.16
2023-01-18T10:00:20.213Z,87.16
2023-01-18T10:01:20.488Z,87.16
2023-01-18T10:02:20.276Z,87.05
2023-01-18T10:03:20.188Z,87.01
2023-01-18T10:04:20.166Z,87.01
2023-01-18T10:05:20.173Z,87.01
2023-01-18T10:06:20.165Z,87.01
2023-01-18T10:07:20.134Z,86.91
2023-01-18T10:08:20.129Z,86.91
2023-01-18T10:09:20.128Z,86.80
2023-01-18T10:10:20.106Z,86.70
2023-01-18T10:11:20.090Z,86.70
2023-01-18T10:12:20.108Z,86.55
2023-01-18T10:13:20.068Z,86.55
2023-01-18T10:14:20.063Z,86.55
2023-01-18T10:15:20.075Z,86.45
2023-01-18T10:16:20.058Z,86.45
2023-01-18T10:17:20.031Z,86.35
2023-01-18T10:18:20.028Z,86.24
2023-01-18T10:19:20.038Z,86.14
2023-01-18T10:20:19.988Z,86.04
2023-01-18T10:21:19.994Z,86.04
2023-01-18T10:22:19.973Z,86.04
2023-01-18T10:23:19.971Z,86.04
2023-01-18T10:24:19.966Z,86.04
2023-01-18T10:25:19.959Z,86.04
2023-01-18T10:26:19.918Z,86.14
2023-01-18T10:27:19.930Z,86.14
2023-01-18T10:28:19.976Z,86.04
2023-01-18T10:29:19.899Z,86.04
2023-01-18T10:30:19.918Z,86.14
2023-01-18T10:31:19.900Z,86.24
2023-01-18T10:32:19.863Z,86.24
2023-01-18T10:33:19.861Z,86.24
2023-01-18T10:34:19.833Z,86.24
2023-01-18T10:35:19.841Z,86.35
2023-01-18T10:36:19.819Z,86.24
2023-01-18T10:37:19.816Z,86.31
2023-01-18T10:38:19.799Z,86.35
2023-01-18T10:39:19.802Z,86.41
2023-01-18T10:40:19.783Z,86.41
2023-01-18T10:41:19.780Z,86.41
2023-01-18T10:42:19.754Z,86.31
2023-01-18T10:43:19.750Z,86.31
2023-01-18T10:44:19.729Z,86.31
2023-01-18T10:45:19.735Z,86.31
2023-01-18T10:46:19.764Z,86.31
2023-01-18T10:47:19.729Z,86.31
2023-01-18T10:48:19.694Z,86.31
2023-01-18T10:49:19.671Z,86.20
2023-01-18T10:50:19.663Z,86.31
2023-01-18T10:51:19.680Z,86.41
2023-01-18T10:52:19.646Z,86.31
2023-01-18T10:53:19.629Z,86.20
2023-01-18T10:54:19.627Z,86.10
2023-01-18T10:55:19.622Z,85.99
2023-01-18T10:56:19.619Z,85.89
2023-01-18T10:57:19.589Z,85.89
2023-01-18T10:58:19.573Z,85.89
2023-01-18T10:59:19.611Z,85.99
2023-01-18T11:00:19.545Z,85.96
2023-01-18T11:01:19.710Z,86.06
2023-01-18T11:02:19.567Z,86.06
2023-01-18T11:03:19.512Z,86.06
2023-01-18T11:04:19.515Z,86.06
2023-01-18T11:05:19.494Z,86.06
2023-01-18T11:06:19.481Z,85.96
2023-01-18T11:07:19.467Z,85.85
2023-01-18T11:08:19.462Z,85.74
2023-01-18T11:09:19.460Z,85.74
2023-01-18T11:10:19.446Z,85.64
2023-01-18T11:11:19.432Z,85.53
2023-01-18T11:12:19.421Z,85.64
2023-01-18T11:13:19.412Z,85.64
2023-01-18T11:14:19.400Z,85.53
2023-01-18T11:15:19.385Z,85.53
2023-01-18T11:16:19.415Z,85.53
2023-01-18T11:17:19.363Z,85.53
2023-01-18T11:18:19.364Z,85.53
2023-01-18T11:19:19.351Z,85.53
2023-01-18T11:20:19.336Z,85.60
2023-01-18T11:21:19.334Z,85.60
2023-01-18T11:22:19.312Z,85.50
2023-01-18T11:23:19.329Z,85.39
2023-01-18T11:24:19.302Z,85.29
2023-01-18T11:25:19.291Z,85.18
2023-01-18T11:26:19.320Z,85.08
2023-01-18T11:27:19.278Z,85.08
2023-01-18T11:28:19.257Z,84.66
2023-01-18T11:29:19.222Z,84.52
2023-01-18T11:30:19.213Z,84.41
2023-01-18T11:31:21.146Z,84.41
2023-01-18T11:32:19.198Z,84.31
2023-01-18T11:33:19.184Z,84.31
2023-01-18T11:34:19.185Z,84.20
2023-01-18T11:35:19.164Z,84.20
2023-01-18T11:36:19.167Z,84.10
2023-01-18T11:37:19.164Z,84.10
2023-01-18T11:38:19.127Z,84.00
2023-01-18T11:39:19.130Z,84.00
2023-01-18T11:40:19.143Z,83.89
2023-01-18T11:41:19.097Z,83.85
2023-01-18T11:42:19.080Z,83.85
2023-01-18T11:43:19.084Z,83.85
2023-01-18T11:44:19.098Z,83.85
2023-01-18T11:45:19.065Z,83.75
2023-01-18T11:46:19.082Z,83.75
2023-01-18T11:47:19.033Z,83.64
2023-01-18T11:48:19.024Z,83.54
2023-01-18T11:49:19.036Z,83.54
2023-01-18T11:50:22.362Z,83.44
2023-01-18T11:51:18.984Z,83.33
2023-01-18T11:52:18.969Z,83.33
2023-01-18T11:53:18.961Z,83.44
2023-01-18T11:54:18.987Z,83.44
2023-01-18T11:55:18.945Z,83.40
2023-01-18T11:56:18.935Z,83.40
2023-01-18T11:57:18.920Z,83.29
2023-01-18T11:58:18.912Z,83.29
2023-01-18T11:59:18.903Z,83.08
2023-01-18T12:00:18.960Z,83.04
2023-01-18T12:01:18.888Z,82.94
2023-01-18T12:02:18.971Z,82.84
2023-01-18T12:03:18.910Z,82.73
2023-01-18T12:04:18.838Z,82.63
2023-01-18T12:05:18.857Z,82.53
2023-01-18T12:06:18.826Z,82.42
2023-01-18T12:07:18.841Z,82.42
2023-01-18T12:08:18.816Z,82.38
2023-01-18T12:09:18.784Z,82.38
2023-01-18T12:10:18.829Z,82.38
2023-01-18T12:11:18.802Z,82.48
2023-01-18T12:12:19.824Z,82.48
2023-01-18T12:13:18.743Z,82.38
2023-01-18T12:14:18.754Z,82.48
2023-01-18T12:15:18.719Z,82.45
2023-01-18T12:16:18.791Z,82.24
2023-01-18T12:17:18.734Z,81.82
2023-01-18T12:18:19.210Z,81.62
2023-01-18T12:19:18.683Z,81.62
2023-01-18T12:20:18.684Z,81.62
2023-01-18T12:21:18.654Z,81.51
2023-01-18T12:22:18.641Z,81.41
2023-01-18T12:23:18.661Z,81.20
2023-01-18T12:24:18.617Z,80.88
2023-01-18T12:25:18.627Z,80.57
2023-01-18T12:26:18.601Z,80.68
2023-01-18T12:27:18.590Z,80.74
2023-01-18T12:28:18.590Z,80.64
2023-01-18T12:29:18.555Z,80.64
2023-01-18T12:30:18.691Z,80.64
2023-01-18T12:31:18.539Z,80.54
2023-01-18T12:32:18.528Z,80.43
2023-01-18T12:33:18.547Z,80.33
2023-01-18T12:34:18.559Z,80.22
2023-01-18T12:35:24.886Z,80.29
2023-01-18T12:36:18.491Z,80.40
2023-01-18T12:37:18.477Z,80.40
2023-01-18T12:38:18.481Z,80.40
2023-01-18T12:39:18.459Z,80.40
2023-01-18T12:40:18.439Z,80.50
2023-01-18T12:41:18.440Z,80.08
2023-01-18T12:42:18.414Z,79.87
2023-01-18T12:43:18.408Z,79.46
2023-01-18T12:44:18.402Z,79.14
2023-01-18T12:45:18.413Z,78.94
2023-01-18T12:46:18.406Z,78.52
2023-01-18T12:47:18.367Z,78.31
2023-01-18T12:48:18.350Z,78.31
2023-01-18T12:49:18.346Z,78.49
2023-01-18T12:50:18.385Z,78.59
2023-01-18T12:51:18.332Z,78.59
2023-01-18T12:52:19.511Z,78.17